Hopeland, PA (17533)

12:58 AM EST on November 20, 2017 (GMT -0500)
Webster Hill | | Change Station

Elev 482 ft 40.20 °N, 76.31 °W | Updated 5 seconds ago

Partly Cloudy
Partly Cloudy
37.9 °F
Feels Like 34 °F
N
5.6
Wind Variable Wind from NW
Gusts 10.1 mph

Today
High -- | Low -- °F
--% Chance of Precip.
Yesterday
High -- | Low -- °F
Precip. -- in
Pressure 29.93 in
Visibility 10.0 miles
Clouds Scattered Clouds 4800 ft
Windchill 34 °F
Dew Point 23 °F
Humidity 55%
Rainfall 0.00 in
Snow Depth Not available.
6:56 AM 4:44 PM
Waxing Crescent, 3% visible
METAR KLNS 200553Z AUTO 29009KT 10SM SCT048 03/M03 A2993 RMK AO2 PK WND 29027/0513 SLP135 T00281028 10050 20022 53023
Pressure 29.93 in
Visibility 10.0 miles
Clouds Scattered Clouds 4800 ft
Windchill 34 °F
Dew Point 23 °F
Humidity 55%
Rainfall 0.00 in
Snow Depth Not available.
6:56 AM 4:44 PM
Waxing Crescent, 3% visible
METAR KLNS 200553Z AUTO 29009KT 10SM SCT048 03/M03 A2993 RMK AO2 PK WND 29027/0513 SLP135 T00281028 10050 20022 53023

Get Severe Weather Alerts

Thanks for signing up!

Be on the lookout for a verification email in your inbox.

You'll start receiving the daily forecast at 6 AM.

×

10-Day Weather Forecast

Almanac

Astronomy

Nov. 20, 2017 Rise Set
Actual Time
Civil Twilight
Nautical Twilight
Astronomical Twilight
Moon
Length of Visible Light
Length of Day
Tomorrow will be .
, % of the Moon is Illuminated

Today's Extremes

State Highs State Lows

Community

WunderPhotos

Category 6

Welcome to Category 6. This is the collective home for Weather Underground's featured writeups by Dr. Jeff Masters (right), Bob Henson (left), Chris Burt, and other regular contributors.

Nearby

Air Quality

  Air Quality AQ Index Pollutant
Not available.

Snow Depth

Station Depth Elevation

Earthquake Activity

City Distance Mag. Time & Date
Minimum magnitude displayed is 2.5.

Coastal Water Temperatures

Place Temperature

Stations

Nearby Weather Stations

Station Location Temp. Windchill Dew Point Humidity Wind Precip. Elev Updated Type
                   

Watches & Warnings

There are currently no watches in effect.